sensor_id;sensor_type;location;lat;lon;timestamp;pressure;altitude;pressure_sealevel;temperature;humidity
10668;BME280;5382;42.136;24.796;2023-07-08T00:01:57;99739.69;;;24.42;100.00
10668;BME280;5382;42.136;24.796;2023-07-08T00:04:25;99757.41;;;24.37;100.00
10668;BME280;5382;42.136;24.796;2023-07-08T00:06:52;99732.22;;;24.37;100.00
10668;BME280;5382;42.136;24.796;2023-07-08T00:09:19;99742.22;;;24.43;100.00
10668;BME280;5382;42.136;24.796;2023-07-08T00:11:46;99722.44;;;24.43;100.00
10668;BME280;5382;42.136;24.796;2023-07-08T00:14:12;99734.94;;;24.44;100.00
10668;BME280;5382;42.136;24.796;2023-07-08T00:16:39;99731.25;;;24.45;100.00
10668;BME280;5382;42.136;24.796;2023-07-08T00:19:08;99741.84;;;24.46;100.00
10668;BME280;5382;42.136;24.796;2023-07-08T00:21:37;99737.69;;;24.50;100.00
10668;BME280;5382;42.136;24.796;2023-07-08T00:24:04;99739.75;;;24.48;100.00
10668;BME280;5382;42.136;24.796;2023-07-08T00:26:31;99725.19;;;24.49;100.00
10668;BME280;5382;42.136;24.796;2023-07-08T00:28:58;99757.88;;;24.54;100.00
10668;BME280;5382;42.136;24.796;2023-07-08T00:31:25;99731.22;;;24.51;100.00
10668;BME280;5382;42.136;24.796;2023-07-08T00:33:53;99730.41;;;24.51;100.00
10668;BME280;5382;42.136;24.796;2023-07-08T00:36:22;99737.47;;;24.45;100.00
10668;BME280;5382;42.136;24.796;2023-07-08T00:38:51;99737.69;;;24.50;100.00
10668;BME280;5382;42.136;24.796;2023-07-08T00:41:21;99740.19;;;24.52;100.00
10668;BME280;5382;42.136;24.796;2023-07-08T00:43:51;99736.00;;;24.49;100.00
10668;BME280;5382;42.136;24.796;2023-07-08T00:46:31;99744.09;;;24.43;100.00
10668;BME280;5382;42.136;24.796;2023-07-08T00:49:05;99745.34;;;24.40;100.00
10668;BME280;5382;42.136;24.796;2023-07-08T00:51:37;99752.59;;;24.33;100.00
10668;BME280;5382;42.136;24.796;2023-07-08T00:54:10;99753.00;;;24.30;100.00
10668;BME280;5382;42.136;24.796;2023-07-08T00:56:40;99770.88;;;24.31;100.00
10668;BME280;5382;42.136;24.796;2023-07-08T00:59:13;99754.66;;;24.24;100.00
10668;BME280;5382;42.136;24.796;2023-07-08T01:01:43;99759.84;;;24.26;100.00
10668;BME280;5382;42.136;24.796;2023-07-08T01:04:12;99758.38;;;24.16;100.00
10668;BME280;5382;42.136;24.796;2023-07-08T01:06:44;99762.91;;;24.09;100.00
10668;BME280;5382;42.136;24.796;2023-07-08T01:09:15;99764.56;;;24.10;100.00
10668;BME280;5382;42.136;24.796;2023-07-08T01:11:42;99779.09;;;24.03;100.00
10668;BME280;5382;42.136;24.796;2023-07-08T01:14:12;99773.03;;;24.01;100.00
10668;BME280;5382;42.136;24.796;2023-07-08T01:16:42;99782.38;;;23.98;100.00
10668;BME280;5382;42.136;24.796;2023-07-08T01:19:14;99772.78;;;23.89;100.00
10668;BME280;5382;42.136;24.796;2023-07-08T01:21:46;99785.25;;;23.83;100.00
10668;BME280;5382;42.136;24.796;2023-07-08T01:24:14;99777.31;;;23.82;100.00
10668;BME280;5382;42.136;24.796;2023-07-08T01:26:43;99755.28;;;23.78;100.00
10668;BME280;5382;42.136;24.796;2023-07-08T01:29:11;99784.16;;;23.78;100.00
10668;BME280;5382;42.136;24.796;2023-07-08T01:31:38;99770.66;;;23.78;100.00
10668;BME280;5382;42.136;24.796;2023-07-08T01:34:08;99790.59;;;23.77;100.00
10668;BME280;5382;42.136;24.796;2023-07-08T01:36:39;99789.34;;;23.72;100.00
10668;BME280;5382;42.136;24.796;2023-07-08T01:39:11;99778.53;;;23.72;100.00
10668;BME280;5382;42.136;24.796;2023-07-08T01:41:39;99777.31;;;23.75;100.00
10668;BME280;5382;42.136;24.796;2023-07-08T01:44:19;99785.59;;;23.73;100.00
10668;BME280;5382;42.136;24.796;2023-07-08T01:46:47;99775.59;;;23.74;100.00
10668;BME280;5382;42.136;24.796;2023-07-08T01:49:14;99801.81;;;23.73;100.00
10668;BME280;5382;42.136;24.796;2023-07-08T01:51:42;99791.38;;;23.70;100.00
10668;BME280;5382;42.136;24.796;2023-07-08T01:54:10;99781.16;;;23.66;100.00
10668;BME280;5382;42.136;24.796;2023-07-08T01:56:37;99785.09;;;23.63;100.00
10668;BME280;5382;42.136;24.796;2023-07-08T01:59:04;99790.88;;;23.60;100.00
10668;BME280;5382;42.136;24.796;2023-07-08T02:01:30;99802.34;;;23.62;100.00
10668;BME280;5382;42.136;24.796;2023-07-08T02:03:57;99785.25;;;23.55;100.00
10668;BME280;5382;42.136;24.796;2023-07-08T02:06:24;99789.19;;;23.59;100.00
10668;BME280;5382;42.136;24.796;2023-07-08T02:08:51;99789.59;;;23.56;100.00
10668;BME280;5382;42.136;24.796;2023-07-08T02:11:19;99806.59;;;23.50;100.00
10668;BME280;5382;42.136;24.796;2023-07-08T02:13:46;99788.72;;;23.49;100.00
10668;BME280;5382;42.136;24.796;2023-07-08T02:16:13;99823.78;;;23.42;100.00
10668;BME280;5382;42.136;24.796;2023-07-08T02:18:40;99781.22;;;23.44;100.00
10668;BME280;5382;42.136;24.796;2023-07-08T02:21:07;99785.59;;;23.45;100.00
10668;BME280;5382;42.136;24.796;2023-07-08T02:23:34;99793.88;;;23.44;100.00
10668;BME280;5382;42.136;24.796;2023-07-08T02:26:01;99813.81;;;23.43;100.00
10668;BME280;5382;42.136;24.796;2023-07-08T02:28:29;99795.09;;;23.41;100.00
10668;BME280;5382;42.136;24.796;2023-07-08T02:30:56;99785.66;;;23.30;100.00
10668;BME280;5382;42.136;24.796;2023-07-08T02:33:27;99794.66;;;23.38;100.00
10668;BME280;5382;42.136;24.796;2023-07-08T02:35:58;99791.06;;;23.30;100.00
10668;BME280;5382;42.136;24.796;2023-07-08T02:38:25;99806.09;;;23.40;100.00
10668;BME280;5382;42.136;24.796;2023-07-08T02:40:52;99816.81;;;23.26;100.00
10668;BME280;5382;42.136;24.796;2023-07-08T02:43:19;99804.78;;;23.29;100.00
10668;BME280;5382;42.136;24.796;2023-07-08T02:45:49;99812.56;;;23.17;100.00
10668;BME280;5382;42.136;24.796;2023-07-08T02:48:16;99809.69;;;23.19;100.00
10668;BME280;5382;42.136;24.796;2023-07-08T02:50:43;99816.31;;;23.16;100.00
10668;BME280;5382;42.136;24.796;2023-07-08T02:53:10;99817.72;;;23.12;100.00
10668;BME280;5382;42.136;24.796;2023-07-08T02:55:38;99826.63;;;23.13;100.00
10668;BME280;5382;42.136;24.796;2023-07-08T02:58:05;99843.03;;;23.11;100.00
10668;BME280;5382;42.136;24.796;2023-07-08T03:00:31;99840.34;;;23.11;100.00
10668;BME280;5382;42.136;24.796;2023-07-08T03:03:00;99828.91;;;23.09;100.00
10668;BME280;5382;42.136;24.796;2023-07-08T03:05:27;99837.81;;;23.10;100.00
10668;BME280;5382;42.136;24.796;2023-07-08T03:07:54;99848.19;;;23.06;100.00
10668;BME280;5382;42.136;24.796;2023-07-08T03:10:20;99832.63;;;23.08;100.00
10668;BME280;5382;42.136;24.796;2023-07-08T03:12:47;99839.25;;;23.05;100.00
10668;BME280;5382;42.136;24.796;2023-07-08T03:15:14;99881.00;;;23.10;100.00
10668;BME280;5382;42.136;24.796;2023-07-08T03:17:41;99839.44;;;23.04;100.00
10668;BME280;5382;42.136;24.796;2023-07-08T03:20:11;99850.88;;;23.06;100.00
10668;BME280;5382;42.136;24.796;2023-07-08T03:22:38;99851.88;;;23.05;100.00
10668;BME280;5382;42.136;24.796;2023-07-08T03:25:05;99856.66;;;23.03;100.00
10668;BME280;5382;42.136;24.796;2023-07-08T03:27:32;99855.63;;;23.04;100.00
10668;BME280;5382;42.136;24.796;2023-07-08T03:29:59;99851.06;;;23.04;100.00
10668;BME280;5382;42.136;24.796;2023-07-08T03:32:25;99855.25;;;23.07;100.00
10668;BME280;5382;42.136;24.796;2023-07-08T03:34:52;99850.81;;;22.99;100.00
10668;BME280;5382;42.136;24.796;2023-07-08T03:37:20;99881.88;;;22.95;100.00
10668;BME280;5382;42.136;24.796;2023-07-08T03:39:47;99870.53;;;23.00;100.00
10668;BME280;5382;42.136;24.796;2023-07-08T03:42:14;99876.00;;;23.06;100.00
10668;BME280;5382;42.136;24.796;2023-07-08T03:44:41;99880.09;;;23.02;100.00
10668;BME280;5382;42.136;24.796;2023-07-08T03:47:08;99872.59;;;22.98;100.00
10668;BME280;5382;42.136;24.796;2023-07-08T03:49:35;99894.19;;;22.98;100.00
10668;BME280;5382;42.136;24.796;2023-07-08T03:52:02;99884.00;;;23.00;100.00
10668;BME280;5382;42.136;24.796;2023-07-08T03:54:30;99872.22;;;23.01;100.00
10668;BME280;5382;42.136;24.796;2023-07-08T03:56:57;99878.25;;;23.03;100.00
10668;BME280;5382;42.136;24.796;2023-07-08T03:59:24;99880.97;;;23.03;100.00
10668;BME280;5382;42.136;24.796;2023-07-08T04:01:50;99888.66;;;23.06;100.00
10668;BME280;5382;42.136;24.796;2023-07-08T04:04:17;99896.69;;;22.99;100.00
10668;BME280;5382;42.136;24.796;2023-07-08T04:06:44;99904.38;;;23.02;100.00
10668;BME280;5382;42.136;24.796;2023-07-08T04:09:11;99865.00;;;22.72;100.00
10668;BME280;5382;42.136;24.796;2023-07-08T04:11:39;99911.22;;;22.98;100.00
10668;BME280;5382;42.136;24.796;2023-07-08T04:14:08;99917.53;;;23.05;100.00
10668;BME280;5382;42.136;24.796;2023-07-08T04:16:43;99887.19;;;22.89;100.00
10668;BME280;5382;42.136;24.796;2023-07-08T04:19:12;99905.97;;;23.12;100.00
10668;BME280;5382;42.136;24.796;2023-07-08T04:21:40;99904.16;;;23.19;100.00
10668;BME280;5382;42.136;24.796;2023-07-08T04:24:09;99909.03;;;23.30;100.00
10668;BME280;5382;42.136;24.796;2023-07-08T04:26:36;99904.94;;;23.34;100.00
10668;BME280;5382;42.136;24.796;2023-07-08T04:29:07;99908.06;;;23.38;100.00
10668;BME280;5382;42.136;24.796;2023-07-08T04:31:35;99912.81;;;23.36;100.00
10668;BME280;5382;42.136;24.796;2023-07-08T04:34:02;99899.41;;;23.42;100.00
10668;BME280;5382;42.136;24.796;2023-07-08T04:36:29;99897.78;;;23.48;100.00
10668;BME280;5382;42.136;24.796;2023-07-08T04:38:56;99829.22;;;23.21;100.00
10668;BME280;5382;42.136;24.796;2023-07-08T04:41:24;99874.38;;;23.55;100.00
10668;BME280;5382;42.136;24.796;2023-07-08T04:43:52;99889.78;;;23.61;100.00
10668;BME280;5382;42.136;24.796;2023-07-08T04:46:27;99896.91;;;23.69;100.00
10668;BME280;5382;42.136;24.796;2023-07-08T04:49:00;99862.69;;;23.48;100.00
10668;BME280;5382;42.136;24.796;2023-07-08T04:51:28;99882.88;;;23.52;100.00
10668;BME280;5382;42.136;24.796;2023-07-08T04:53:55;99887.72;;;23.63;100.00
10668;BME280;5382;42.136;24.796;2023-07-08T04:56:22;99886.22;;;23.76;100.00
10668;BME280;5382;42.136;24.796;2023-07-08T04:58:49;99878.75;;;23.78;100.00
10668;BME280;5382;42.136;24.796;2023-07-08T05:01:16;99875.00;;;23.79;100.00
10668;BME280;5382;42.136;24.796;2023-07-08T05:03:44;99861.38;;;23.65;100.00
10668;BME280;5382;42.136;24.796;2023-07-08T05:06:11;99884.84;;;23.93;100.00
10668;BME280;5382;42.136;24.796;2023-07-08T05:08:37;99881.91;;;23.88;100.00
10668;BME280;5382;42.136;24.796;2023-07-08T05:11:05;99882.75;;;23.88;100.00
10668;BME280;5382;42.136;24.796;2023-07-08T05:13:31;99886.78;;;23.99;100.00
10668;BME280;5382;42.136;24.796;2023-07-08T05:15:58;99820.28;;;23.48;100.00
10668;BME280;5382;42.136;24.796;2023-07-08T05:18:25;99839.50;;;23.60;100.00
10668;BME280;5382;42.136;24.796;2023-07-08T05:20:53;99844.56;;;23.70;100.00
10668;BME280;5382;42.136;24.796;2023-07-08T05:23:23;99823.47;;;23.59;100.00
10668;BME280;5382;42.136;24.796;2023-07-08T05:25:50;99747.69;;;23.04;100.00
10668;BME280;5382;42.136;24.796;2023-07-08T05:28:16;99792.41;;;23.41;100.00
10668;BME280;5382;42.136;24.796;2023-07-08T05:30:43;99831.34;;;23.75;100.00
10668;BME280;5382;42.136;24.796;2023-07-08T05:33:10;99811.56;;;23.75;100.00
10668;BME280;5382;42.136;24.796;2023-07-08T05:35:37;99869.56;;;24.07;100.00
10668;BME280;5382;42.136;24.796;2023-07-08T05:38:06;99875.63;;;24.09;100.00
10668;BME280;5382;42.136;24.796;2023-07-08T05:40:32;99879.94;;;24.03;100.00
10668;BME280;5382;42.136;24.796;2023-07-08T05:42:59;99869.75;;;24.05;100.00
10668;BME280;5382;42.136;24.796;2023-07-08T05:45:26;99870.44;;;24.14;100.00
10668;BME280;5382;42.136;24.796;2023-07-08T05:47:53;99876.13;;;24.26;100.00
10668;BME280;5382;42.136;24.796;2023-07-08T05:50:20;99856.16;;;24.27;100.00
10668;BME280;5382;42.136;24.796;2023-07-08T05:52:46;99783.25;;;24.05;100.00
10668;BME280;5382;42.136;24.796;2023-07-08T05:55:15;99867.91;;;24.47;100.00
10668;BME280;5382;42.136;24.796;2023-07-08T05:57:41;99885.34;;;24.38;100.00
10668;BME280;5382;42.136;24.796;2023-07-08T06:00:09;99837.47;;;24.32;100.00
10668;BME280;5382;42.136;24.796;2023-07-08T06:02:37;99864.81;;;24.15;100.00
10668;BME280;5382;42.136;24.796;2023-07-08T06:05:04;99849.66;;;24.21;100.00
10668;BME280;5382;42.136;24.796;2023-07-08T06:07:31;99858.81;;;24.20;100.00
10668;BME280;5382;42.136;24.796;2023-07-08T06:09:58;99840.56;;;24.29;100.00
10668;BME280;5382;42.136;24.796;2023-07-08T06:12:27;99861.81;;;24.32;100.00
10668;BME280;5382;42.136;24.796;2023-07-08T06:14:55;99841.59;;;24.28;100.00
10668;BME280;5382;42.136;24.796;2023-07-08T06:17:22;99770.91;;;23.83;100.00
10668;BME280;5382;42.136;24.796;2023-07-08T06:19:49;99866.41;;;24.38;100.00
10668;BME280;5382;42.136;24.796;2023-07-08T06:22:16;99820.34;;;24.18;100.00
10668;BME280;5382;42.136;24.796;2023-07-08T06:24:43;99854.16;;;24.42;100.00
10668;BME280;5382;42.136;24.796;2023-07-08T06:27:09;99872.03;;;24.43;100.00
10668;BME280;5382;42.136;24.796;2023-07-08T06:29:40;99782.28;;;24.20;100.00
10668;BME280;5382;42.136;24.796;2023-07-08T06:32:08;99838.94;;;24.41;100.00
10668;BME280;5382;42.136;24.796;2023-07-08T06:34:34;99862.34;;;24.55;100.00
10668;BME280;5382;42.136;24.796;2023-07-08T06:37:01;99850.91;;;24.60;100.00
10668;BME280;5382;42.136;24.796;2023-07-08T06:39:28;99844.09;;;24.71;100.00
10668;BME280;5382;42.136;24.796;2023-07-08T06:41:55;99855.78;;;24.85;100.00
10668;BME280;5382;42.136;24.796;2023-07-08T06:44:22;99853.47;;;24.88;100.00
10668;BME280;5382;42.136;24.796;2023-07-08T06:46:51;99859.97;;;25.00;100.00
10668;BME280;5382;42.136;24.796;2023-07-08T06:49:17;99856.44;;;25.07;100.00
10668;BME280;5382;42.136;24.796;2023-07-08T06:51:44;99857.34;;;25.20;100.00
10668;BME280;5382;42.136;24.796;2023-07-08T06:54:11;99850.66;;;25.16;100.00
10668;BME280;5382;42.136;24.796;2023-07-08T06:56:39;99849.22;;;25.40;100.00
10668;BME280;5382;42.136;24.796;2023-07-08T06:59:06;99856.91;;;25.50;100.00
10668;BME280;5382;42.136;24.796;2023-07-08T07:01:33;99847.75;;;25.51;100.00
10668;BME280;5382;42.136;24.796;2023-07-08T07:04:03;99856.72;;;25.52;100.00
10668;BME280;5382;42.136;24.796;2023-07-08T07:06:31;99845.66;;;25.60;100.00
10668;BME280;5382;42.136;24.796;2023-07-08T07:08:57;99869.44;;;25.64;100.00
10668;BME280;5382;42.136;24.796;2023-07-08T07:11:24;99869.84;;;25.61;100.00
10668;BME280;5382;42.136;24.796;2023-07-08T07:13:51;99868.81;;;25.69;100.00
10668;BME280;5382;42.136;24.796;2023-07-08T07:16:18;99862.34;;;25.57;100.00
10668;BME280;5382;42.136;24.796;2023-07-08T07:18:45;99864.84;;;25.65;100.00
10668;BME280;5382;42.136;24.796;2023-07-08T07:21:15;99860.22;;;25.79;100.00
10668;BME280;5382;42.136;24.796;2023-07-08T07:23:41;99902.16;;;26.03;100.00
10668;BME280;5382;42.136;24.796;2023-07-08T07:26:08;99846.47;;;25.80;100.00
10668;BME280;5382;42.136;24.796;2023-07-08T07:28:35;99874.78;;;26.24;100.00
10668;BME280;5382;42.136;24.796;2023-07-08T07:31:03;99878.06;;;26.40;100.00
10668;BME280;5382;42.136;24.796;2023-07-08T07:33:31;99884.72;;;26.44;100.00
10668;BME280;5382;42.136;24.796;2023-07-08T07:35:58;99874.28;;;26.41;100.00
10668;BME280;5382;42.136;24.796;2023-07-08T07:38:26;99889.72;;;26.53;100.00
10668;BME280;5382;42.136;24.796;2023-07-08T07:40:54;99831.31;;;26.38;100.00
10668;BME280;5382;42.136;24.796;2023-07-08T07:43:21;99890.06;;;26.77;100.00
10668;BME280;5382;42.136;24.796;2023-07-08T07:45:50;99875.25;;;26.66;100.00
10668;BME280;5382;42.136;24.796;2023-07-08T07:48:17;99878.81;;;26.67;100.00
10668;BME280;5382;42.136;24.796;2023-07-08T07:50:45;99886.59;;;26.57;100.00
10668;BME280;5382;42.136;24.796;2023-07-08T07:53:12;99846.28;;;26.60;100.00
10668;BME280;5382;42.136;24.796;2023-07-08T07:55:40;99895.41;;;26.90;100.00
10668;BME280;5382;42.136;24.796;2023-07-08T07:58:07;99893.66;;;27.03;100.00
10668;BME280;5382;42.136;24.796;2023-07-08T08:00:36;99903.22;;;27.18;99.75
10668;BME280;5382;42.136;24.796;2023-07-08T08:03:03;99913.25;;;27.11;96.46
10668;BME280;5382;42.136;24.796;2023-07-08T08:05:30;99777.03;;;26.38;98.16
10668;BME280;5382;42.136;24.796;2023-07-08T08:07:58;99847.22;;;26.79;94.66
10668;BME280;5382;42.136;24.796;2023-07-08T08:10:25;99893.38;;;27.17;95.28
10668;BME280;5382;42.136;24.796;2023-07-08T08:12:53;99898.44;;;27.07;98.64
10668;BME280;5382;42.136;24.796;2023-07-08T08:15:20;99920.41;;;26.99;92.25
10668;BME280;5382;42.136;24.796;2023-07-08T08:17:48;99811.69;;;26.36;94.76
10668;BME280;5382;42.136;24.796;2023-07-08T08:20:17;99895.69;;;27.14;91.63
10668;BME280;5382;42.136;24.796;2023-07-08T08:22:45;99900.88;;;27.15;91.31
10668;BME280;5382;42.136;24.796;2023-07-08T08:25:14;99905.94;;;27.12;92.08
10668;BME280;5382;42.136;24.796;2023-07-08T08:27:41;99891.78;;;27.03;92.84
10668;BME280;5382;42.136;24.796;2023-07-08T08:30:11;99879.59;;;27.12;91.64
10668;BME280;5382;42.136;24.796;2023-07-08T08:32:39;99918.63;;;27.25;88.31
10668;BME280;5382;42.136;24.796;2023-07-08T08:35:08;99886.47;;;27.22;89.22
10668;BME280;5382;42.136;24.796;2023-07-08T08:37:35;99895.25;;;27.49;90.42
10668;BME280;5382;42.136;24.796;2023-07-08T08:40:02;99893.31;;;27.56;87.90
10668;BME280;5382;42.136;24.796;2023-07-08T08:42:33;99901.84;;;27.59;86.96
10668;BME280;5382;42.136;24.796;2023-07-08T08:45:03;99895.59;;;27.59;86.47
10668;BME280;5382;42.136;24.796;2023-07-08T08:47:38;99931.41;;;27.81;82.26
10668;BME280;5382;42.136;24.796;2023-07-08T08:50:20;99902.75;;;27.78;78.60
10668;BME280;5382;42.136;24.796;2023-07-08T08:52:53;99909.41;;;28.08;76.29
10668;BME280;5382;42.136;24.796;2023-07-08T08:55:21;99914.63;;;28.09;77.25
10668;BME280;5382;42.136;24.796;2023-07-08T08:57:53;99906.72;;;28.01;77.02
10668;BME280;5382;42.136;24.796;2023-07-08T09:00:30;99913.50;;;28.17;75.57
10668;BME280;5382;42.136;24.796;2023-07-08T09:03:08;99879.53;;;28.01;75.10
10668;BME280;5382;42.136;24.796;2023-07-08T09:05:36;99869.41;;;28.08;74.17
10668;BME280;5382;42.136;24.796;2023-07-08T09:08:12;99860.44;;;28.08;73.09
10668;BME280;5382;42.136;24.796;2023-07-08T09:10:44;99863.91;;;28.15;73.28
10668;BME280;5382;42.136;24.796;2023-07-08T09:13:17;99929.88;;;28.54;71.67
10668;BME280;5382;42.136;24.796;2023-07-08T09:15:48;99926.91;;;28.74;70.71
10668;BME280;5382;42.136;24.796;2023-07-08T09:18:27;99876.75;;;28.63;66.53
10668;BME280;5382;42.136;24.796;2023-07-08T09:20:58;99867.69;;;28.32;68.38
10668;BME280;5382;42.136;24.796;2023-07-08T09:23:32;99719.56;;;27.54;70.31
10668;BME280;5382;42.136;24.796;2023-07-08T09:26:06;99720.78;;;27.77;70.12
10668;BME280;5382;42.136;24.796;2023-07-08T09:28:38;99896.66;;;28.93;70.16
10668;BME280;5382;42.136;24.796;2023-07-08T09:31:06;99901.00;;;28.53;69.55
10668;BME280;5382;42.136;24.796;2023-07-08T09:33:37;99837.59;;;28.09;72.70
10668;BME280;5382;42.136;24.796;2023-07-08T09:36:16;99877.22;;;28.60;72.31
10668;BME280;5382;42.136;24.796;2023-07-08T09:38:47;99901.94;;;28.77;69.65
10668;BME280;5382;42.136;24.796;2023-07-08T09:41:30;99868.44;;;28.58;69.45
10668;BME280;5382;42.136;24.796;2023-07-08T09:44:06;99864.97;;;28.69;69.45
10668;BME280;5382;42.136;24.796;2023-07-08T09:46:36;99846.19;;;28.79;69.77
10668;BME280;5382;42.136;24.796;2023-07-08T09:49:17;99799.81;;;28.56;66.58
10668;BME280;5382;42.136;24.796;2023-07-08T09:51:44;99851.63;;;28.79;66.29
10668;BME280;5382;42.136;24.796;2023-07-08T09:54:11;99758.22;;;28.48;66.93
10668;BME280;5382;42.136;24.796;2023-07-08T09:56:41;99711.28;;;28.35;66.12
10668;BME280;5382;42.136;24.796;2023-07-08T09:59:12;99846.63;;;29.48;64.93
10668;BME280;5382;42.136;24.796;2023-07-08T10:01:42;99804.03;;;29.35;63.02
10668;BME280;5382;42.136;24.796;2023-07-08T10:04:09;99755.91;;;29.18;62.97
10668;BME280;5382;42.136;24.796;2023-07-08T10:06:37;99824.47;;;29.80;61.25
10668;BME280;5382;42.136;24.796;2023-07-08T10:09:08;99832.41;;;29.70;60.30
10668;BME280;5382;42.136;24.796;2023-07-08T10:11:44;99842.66;;;29.32;60.91
10668;BME280;5382;42.136;24.796;2023-07-08T10:14:21;99862.09;;;29.24;61.97
10668;BME280;5382;42.136;24.796;2023-07-08T10:16:50;99831.50;;;29.22;62.55
10668;BME280;5382;42.136;24.796;2023-07-08T10:19:19;99858.38;;;29.07;62.63
10668;BME280;5382;42.136;24.796;2023-07-08T10:21:55;99832.00;;;29.31;61.95
10668;BME280;5382;42.136;24.796;2023-07-08T10:24:45;99834.03;;;29.47;60.00
10668;BME280;5382;42.136;24.796;2023-07-08T10:27:21;99811.28;;;29.42;60.02
10668;BME280;5382;42.136;24.796;2023-07-08T10:29:54;99775.69;;;29.60;60.11
10668;BME280;5382;42.136;24.796;2023-07-08T10:32:31;99756.97;;;29.64;58.37
10668;BME280;5382;42.136;24.796;2023-07-08T10:35:07;99812.81;;;29.96;58.62
10668;BME280;5382;42.136;24.796;2023-07-08T10:37:45;99814.81;;;30.13;57.58
10668;BME280;5382;42.136;24.796;2023-07-08T10:40:27;99760.28;;;29.42;58.46
10668;BME280;5382;42.136;24.796;2023-07-08T10:43:17;99805.88;;;30.17;57.43
10668;BME280;5382;42.136;24.796;2023-07-08T10:45:51;99798.47;;;30.70;57.13
10668;BME280;5382;42.136;24.796;2023-07-08T10:48:35;99761.63;;;31.01;53.81
10668;BME280;5382;42.136;24.796;2023-07-08T10:51:11;99761.69;;;31.06;52.54
10668;BME280;5382;42.136;24.796;2023-07-08T10:53:58;99785.22;;;31.97;51.71
10668;BME280;5382;42.136;24.796;2023-07-08T10:56:36;99772.03;;;32.16;51.59
10668;BME280;5382;42.136;24.796;2023-07-08T10:59:22;99760.84;;;31.96;49.01
10668;BME280;5382;42.136;24.796;2023-07-08T11:02:02;99777.81;;;32.96;49.03
10668;BME280;5382;42.136;24.796;2023-07-08T11:04:51;99785.78;;;33.62;46.89
10668;BME280;5382;42.136;24.796;2023-07-08T11:07:30;99787.81;;;33.07;46.05
10668;BME280;5382;42.136;24.796;2023-07-08T11:10:02;99738.16;;;33.04;46.42
10668;BME280;5382;42.136;24.796;2023-07-08T11:12:34;99799.75;;;33.23;44.96
10668;BME280;5382;42.136;24.796;2023-07-08T11:15:06;99770.66;;;33.22;45.01
10668;BME280;5382;42.136;24.796;2023-07-08T11:17:43;99740.66;;;33.05;44.68
10668;BME280;5382;42.136;24.796;2023-07-08T11:20:16;99748.66;;;33.17;44.03
10668;BME280;5382;42.136;24.796;2023-07-08T11:22:49;99772.88;;;33.30;43.50
10668;BME280;5382;42.136;24.796;2023-07-08T11:25:20;99772.69;;;33.37;43.98
10668;BME280;5382;42.136;24.796;2023-07-08T11:27:51;99759.31;;;33.51;43.92
10668;BME280;5382;42.136;24.796;2023-07-08T11:30:22;99766.81;;;33.60;43.66
10668;BME280;5382;42.136;24.796;2023-07-08T11:32:58;99775.94;;;33.71;43.44
10668;BME280;5382;42.136;24.796;2023-07-08T11:35:34;99754.84;;;33.82;44.12
10668;BME280;5382;42.136;24.796;2023-07-08T11:38:03;99761.88;;;33.25;44.08
10668;BME280;5382;42.136;24.796;2023-07-08T11:40:50;99759.47;;;33.71;44.16
10668;BME280;5382;42.136;24.796;2023-07-08T11:43:19;99751.31;;;33.92;43.03
10668;BME280;5382;42.136;24.796;2023-07-08T11:45:48;99761.81;;;33.52;43.70
10668;BME280;5382;42.136;24.796;2023-07-08T11:48:18;99735.28;;;33.63;43.78
10668;BME280;5382;42.136;24.796;2023-07-08T11:50:48;99755.47;;;33.99;43.37
10668;BME280;5382;42.136;24.796;2023-07-08T11:53:32;99742.03;;;33.98;43.10
10668;BME280;5382;42.136;24.796;2023-07-08T11:56:04;99743.25;;;33.27;44.23
10668;BME280;5382;42.136;24.796;2023-07-08T12:01:39;99753.94;;;33.23;44.93
10668;BME280;5382;42.136;24.796;2023-07-08T12:04:27;99760.31;;;32.70;45.78
10668;BME280;5382;42.136;24.796;2023-07-08T12:07:20;99741.75;;;32.50;45.98
10668;BME280;5382;42.136;24.796;2023-07-08T12:09:56;99745.34;;;32.50;45.91
10668;BME280;5382;42.136;24.796;2023-07-08T12:12:30;99738.88;;;32.62;45.38
10668;BME280;5382;42.136;24.796;2023-07-08T12:15:05;99743.28;;;32.95;44.99
10668;BME280;5382;42.136;24.796;2023-07-08T12:17:37;99727.47;;;32.75;44.93
10668;BME280;5382;42.136;24.796;2023-07-08T12:20:10;99733.34;;;32.56;46.11
10668;BME280;5382;42.136;24.796;2023-07-08T12:22:42;99733.34;;;32.56;46.33
10668;BME280;5382;42.136;24.796;2023-07-08T12:25:13;99744.47;;;32.23;46.81
10668;BME280;5382;42.136;24.796;2023-07-08T12:27:43;99736.78;;;31.76;46.44
10668;BME280;5382;42.136;24.796;2023-07-08T12:30:10;99740.81;;;31.51;47.36
10668;BME280;5382;42.136;24.796;2023-07-08T12:32:38;99754.84;;;31.38;47.14
10668;BME280;5382;42.136;24.796;2023-07-08T12:35:14;99740.13;;;31.61;47.80
10668;BME280;5382;42.136;24.796;2023-07-08T12:37:45;99735.19;;;32.02;47.18
10668;BME280;5382;42.136;24.796;2023-07-08T12:40:13;99746.38;;;31.78;47.59
10668;BME280;5382;42.136;24.796;2023-07-08T12:42:40;99756.28;;;31.84;48.05
10668;BME280;5382;42.136;24.796;2023-07-08T12:45:14;99772.41;;;31.81;47.48
10668;BME280;5382;42.136;24.796;2023-07-08T12:47:42;99779.69;;;31.75;48.91
10668;BME280;5382;42.136;24.796;2023-07-08T12:50:10;99778.75;;;30.97;51.81
10668;BME280;5382;42.136;24.796;2023-07-08T12:52:37;99792.66;;;30.95;54.32
10668;BME280;5382;42.136;24.796;2023-07-08T12:55:04;99785.97;;;30.29;57.35
10668;BME280;5382;42.136;24.796;2023-07-08T12:57:31;99784.31;;;30.04;60.45
10668;BME280;5382;42.136;24.796;2023-07-08T12:59:58;99783.00;;;30.07;61.75
10668;BME280;5382;42.136;24.796;2023-07-08T13:02:28;99743.47;;;29.22;65.59
10668;BME280;5382;42.136;24.796;2023-07-08T13:04:59;99782.97;;;29.01;71.32
10668;BME280;5382;42.136;24.796;2023-07-08T13:07:33;99801.03;;;28.72;76.16
10668;BME280;5382;42.136;24.796;2023-07-08T13:10:02;99814.69;;;28.53;83.95
10668;BME280;5382;42.136;24.796;2023-07-08T13:12:31;99813.94;;;28.46;95.17